createdAt,value
2023-05-15T00:01:04.516Z,6.54
2023-05-15T00:06:07.329Z,6.48
2023-05-15T00:11:09.992Z,6.41
2023-05-15T00:16:12.812Z,6.49
2023-05-15T00:21:15.572Z,6.51
2023-05-15T00:26:18.297Z,6.41
2023-05-15T00:31:21.443Z,6.42
2023-05-15T00:36:26.022Z,6.16
2023-05-15T00:41:32.323Z,6.15
2023-05-15T00:46:36.566Z,6.17
2023-05-15T00:51:42.462Z,6.11
2023-05-15T00:56:46.358Z,6.12
2023-05-15T01:01:49.097Z,6.06
2023-05-15T01:06:54.921Z,5.98
2023-05-15T01:12:00.952Z,5.98
2023-05-15T01:17:03.682Z,6.00
2023-05-15T01:22:36.441Z,6.05
2023-05-15T01:27:54.773Z,6.08
2023-05-15T01:33:25.790Z,6.46
2023-05-15T01:38:40.018Z,8.48
2023-05-15T01:43:45.909Z,10.61
2023-05-15T01:48:51.227Z,13.04
2023-05-15T01:53:56.510Z,15.34
2023-05-15T01:59:00.728Z,17.34
2023-05-15T02:04:05.120Z,18.65
2023-05-15T02:09:09.820Z,20.17
2023-05-15T02:14:13.178Z,21.43
2023-05-15T02:19:16.094Z,22.68
2023-05-15T02:24:18.855Z,24.04
2023-05-15T02:29:36.802Z,25.05
2023-05-15T02:35:04.415Z,25.91
2023-05-15T02:40:12.121Z,27.15
2023-05-15T02:45:15.288Z,27.81
2023-05-15T02:50:18.921Z,28.25
2023-05-15T02:55:21.588Z,28.13
2023-05-15T03:00:24.298Z,25.59
2023-05-15T03:05:27.390Z,21.07
2023-05-15T03:10:30.388Z,18.30
2023-05-15T03:15:33.094Z,16.82
2023-05-15T03:20:35.905Z,16.34
2023-05-15T03:25:38.625Z,15.73
2023-05-15T03:30:44.698Z,15.20
2023-05-15T03:35:47.357Z,15.91
2023-05-15T03:40:51.230Z,15.20
2023-05-15T03:45:54.352Z,14.85
2023-05-15T03:50:57.247Z,15.08
2023-05-15T03:55:59.951Z,15.52
2023-05-15T04:01:02.666Z,15.32
2023-05-15T04:06:05.764Z,15.17
2023-05-15T04:11:08.646Z,14.99
2023-05-15T04:16:11.321Z,14.80
2023-05-15T04:21:14.361Z,15.00
2023-05-15T04:26:17.367Z,15.17
2023-05-15T04:31:20.171Z,14.66
2023-05-15T04:36:23.151Z,14.90
2023-05-15T04:41:26.825Z,14.95
2023-05-15T04:46:29.615Z,14.71
2023-05-15T04:51:32.340Z,14.92
2023-05-15T04:56:34.962Z,14.86
2023-05-15T05:01:37.728Z,14.97
2023-05-15T05:06:40.422Z,14.93
2023-05-15T05:11:43.870Z,14.84
2023-05-15T05:16:46.837Z,14.65
2023-05-15T05:21:49.512Z,14.15
2023-05-15T05:26:52.085Z,14.78
2023-05-15T05:31:54.870Z,14.64
2023-05-15T05:36:57.786Z,14.77
2023-05-15T05:42:00.459Z,15.12
2023-05-15T05:47:03.338Z,14.93
2023-05-15T05:52:08.210Z,14.60
2023-05-15T05:57:11.028Z,14.60
2023-05-15T06:02:13.748Z,14.97
2023-05-15T06:07:16.501Z,14.60
2023-05-15T06:12:21.555Z,14.92
2023-05-15T06:17:27.675Z,14.99
2023-05-15T06:22:33.130Z,15.56
2023-05-15T06:27:36.551Z,15.42
2023-05-15T06:32:40.763Z,15.50
2023-05-15T06:37:43.716Z,15.71
2023-05-15T06:42:47.308Z,16.00
2023-05-15T06:47:49.964Z,16.21
2023-05-15T06:52:52.800Z,16.58
2023-05-15T06:57:55.548Z,16.44
2023-05-15T07:02:58.216Z,16.81
2023-05-15T07:08:00.996Z,16.10
2023-05-15T07:13:03.680Z,15.91
2023-05-15T07:18:06.895Z,15.55
2023-05-15T07:23:09.931Z,15.82
2023-05-15T07:28:12.690Z,15.76
2023-05-15T07:33:15.891Z,16.20
2023-05-15T07:38:18.875Z,16.23
2023-05-15T07:43:21.532Z,15.71
2023-05-15T07:48:24.610Z,16.24
2023-05-15T07:53:27.462Z,16.79
2023-05-15T07:58:30.348Z,17.61
2023-05-15T08:03:34.228Z,17.91
2023-05-15T08:08:37.425Z,17.94
2023-05-15T08:13:40.203Z,17.76
2023-05-15T08:18:42.890Z,18.37
2023-05-15T08:23:45.637Z,19.06
2023-05-15T08:28:48.376Z,18.97
2023-05-15T08:33:50.998Z,18.66
2023-05-15T08:38:53.682Z,18.94
2023-05-15T08:43:58.486Z,19.86
2023-05-15T08:49:10.433Z,20.12
2023-05-15T08:54:13.226Z,19.95
2023-05-15T08:59:16.126Z,20.08
2023-05-15T09:04:19.528Z,20.83
2023-05-15T09:09:24.324Z,18.91
2023-05-15T09:14:27.148Z,19.10
2023-05-15T09:19:30.729Z,18.12
2023-05-15T09:24:38.048Z,18.49
2023-05-15T09:29:41.478Z,19.38
2023-05-15T09:34:45.163Z,19.52
2023-05-15T09:39:47.915Z,19.57
2023-05-15T09:44:50.599Z,19.69
2023-05-15T09:49:53.412Z,19.84
2023-05-15T09:54:57.105Z,19.90
2023-05-15T10:00:05.351Z,20.52
2023-05-15T10:05:16.051Z,20.50
2023-05-15T10:10:18.768Z,20.36
2023-05-15T10:15:23.092Z,20.72
2023-05-15T10:20:26.975Z,20.57
2023-05-15T10:25:55.969Z,20.27
2023-05-15T10:31:01.639Z,19.96
2023-05-15T10:36:05.720Z,20.40
2023-05-15T10:41:17.314Z,20.47
2023-05-15T10:46:22.233Z,20.25
2023-05-15T10:51:29.610Z,20.14
2023-05-15T10:56:34.337Z,19.78
2023-05-15T11:01:41.517Z,19.27
2023-05-15T11:06:48.596Z,19.31
2023-05-15T11:11:57.156Z,19.56
2023-05-15T11:17:03.939Z,18.45
2023-05-15T11:22:09.816Z,18.14
2023-05-15T11:27:17.025Z,18.93
2023-05-15T11:32:40.889Z,19.51
2023-05-15T11:37:45.848Z,20.32
2023-05-15T11:43:08.662Z,20.01
2023-05-15T11:48:15.335Z,20.36
2023-05-15T11:53:19.035Z,20.72
2023-05-15T11:58:23.258Z,20.62
2023-05-15T12:03:38.506Z,20.30
2023-05-15T12:08:42.308Z,20.26
2023-05-15T12:13:45.004Z,20.00
2023-05-15T12:18:47.827Z,20.14
2023-05-15T12:24:03.917Z,20.10
2023-05-15T12:29:10.504Z,20.61
2023-05-15T12:34:13.416Z,21.05
2023-05-15T12:39:16.075Z,21.02
2023-05-15T12:44:18.840Z,21.23
2023-05-15T12:49:22.977Z,20.95
2023-05-15T12:54:26.382Z,20.18
2023-05-15T12:59:30.192Z,19.56
2023-05-15T13:04:33.758Z,19.99
2023-05-15T13:09:37.040Z,20.50
2023-05-15T13:14:42.267Z,20.75
2023-05-15T13:19:45.004Z,21.04
2023-05-15T13:24:49.023Z,21.08
2023-05-15T13:29:51.682Z,21.19
2023-05-15T13:34:58.949Z,21.32
2023-05-15T13:40:01.621Z,21.14
2023-05-15T13:45:07.838Z,21.30
2023-05-15T13:50:12.810Z,21.23
2023-05-15T13:55:15.743Z,20.83
2023-05-15T14:00:19.905Z,20.79
2023-05-15T14:05:22.585Z,20.80
2023-05-15T14:10:25.593Z,20.50
2023-05-15T14:15:31.286Z,20.51
2023-05-15T14:20:34.008Z,20.70
2023-05-15T14:25:36.808Z,20.68
2023-05-15T14:30:39.407Z,20.77
2023-05-15T14:35:42.071Z,20.67
2023-05-15T14:40:44.934Z,20.76
2023-05-15T14:45:47.728Z,20.68
2023-05-15T14:50:51.262Z,20.69
2023-05-15T14:55:58.630Z,20.71
2023-05-15T15:01:01.465Z,20.48
2023-05-15T15:06:04.562Z,19.94
2023-05-15T15:11:07.915Z,19.55
2023-05-15T15:16:10.887Z,19.59
2023-05-15T15:21:13.664Z,19.65
2023-05-15T15:26:16.370Z,19.77
2023-05-15T15:31:19.859Z,19.84
2023-05-15T15:36:24.899Z,19.43
2023-05-15T15:41:31.851Z,19.53
2023-05-15T15:46:34.511Z,19.26
2023-05-15T15:51:37.340Z,19.14
2023-05-15T15:56:40.423Z,19.22
2023-05-15T16:01:43.448Z,19.28
2023-05-15T16:06:46.292Z,19.32
2023-05-15T16:11:49.026Z,19.07
2023-05-15T16:16:51.769Z,18.97
2023-05-15T16:21:54.571Z,18.90
2023-05-15T16:26:57.408Z,18.92
2023-05-15T16:32:00.905Z,18.84
2023-05-15T16:37:04.100Z,18.83
2023-05-15T16:42:09.326Z,18.82
2023-05-15T16:47:12.321Z,18.79
2023-05-15T16:52:14.975Z,18.69
2023-05-15T16:57:17.649Z,18.44
2023-05-15T17:02:20.300Z,18.13
2023-05-15T17:07:23.063Z,17.58
2023-05-15T17:12:25.826Z,17.52
2023-05-15T17:17:28.702Z,16.94
2023-05-15T17:22:31.682Z,16.65
2023-05-15T17:27:39.912Z,16.49
2023-05-15T17:32:43.356Z,16.23
2023-05-15T17:37:46.071Z,15.91
2023-05-15T17:42:48.918Z,15.60
2023-05-15T17:47:52.399Z,15.36
2023-05-15T17:52:55.199Z,15.19
2023-05-15T17:57:57.938Z,14.99
2023-05-15T18:03:01.376Z,14.74
2023-05-15T18:08:04.613Z,14.39
2023-05-15T18:13:07.322Z,14.27
2023-05-15T18:18:11.082Z,14.13
2023-05-15T18:23:13.916Z,14.19
2023-05-15T18:28:16.680Z,14.05
2023-05-15T18:33:19.654Z,13.88
2023-05-15T18:38:22.527Z,13.64
2023-05-15T18:43:25.208Z,13.66
2023-05-15T18:48:27.883Z,13.52
2023-05-15T18:53:30.741Z,13.45
2023-05-15T18:58:33.511Z,13.31
2023-05-15T19:03:36.509Z,13.28
2023-05-15T19:08:39.220Z,13.26
2023-05-15T19:13:41.916Z,13.11
2023-05-15T19:18:44.912Z,12.77
2023-05-15T19:23:48.299Z,12.68
2023-05-15T19:28:52.836Z,12.64
2023-05-15T19:33:55.619Z,12.52
2023-05-15T19:38:58.486Z,12.42
2023-05-15T19:44:01.410Z,12.34
2023-05-15T19:49:04.233Z,12.19
2023-05-15T19:54:07.232Z,11.88
2023-05-15T19:59:15.026Z,11.63
2023-05-15T20:04:19.354Z,11.58
2023-05-15T20:09:21.971Z,11.39
2023-05-15T20:14:24.694Z,11.25
2023-05-15T20:19:32.638Z,11.44
2023-05-15T20:24:35.636Z,11.21
2023-05-15T20:29:41.510Z,11.31
2023-05-15T20:34:45.946Z,11.27
2023-05-15T20:39:48.949Z,11.32
2023-05-15T20:44:51.889Z,11.27
2023-05-15T20:49:54.906Z,11.25
2023-05-15T20:54:57.626Z,11.05
2023-05-15T21:00:00.292Z,10.84
2023-05-15T21:05:03.024Z,10.81
2023-05-15T21:10:07.351Z,10.73
2023-05-15T21:15:14.200Z,10.73
2023-05-15T21:20:16.902Z,10.65
2023-05-15T21:25:19.745Z,10.40
2023-05-15T21:30:22.536Z,10.23
2023-05-15T21:35:25.713Z,10.13
2023-05-15T21:40:28.817Z,10.23
2023-05-15T21:45:31.723Z,10.21
2023-05-15T21:50:35.207Z,10.25
2023-05-15T21:55:37.881Z,10.02
2023-05-15T22:00:40.632Z,9.92
2023-05-15T22:05:44.165Z,9.89
2023-05-15T22:10:47.140Z,9.73
2023-05-15T22:15:49.761Z,9.65
2023-05-15T22:20:52.703Z,9.76
2023-05-15T22:25:55.414Z,9.78
2023-05-15T22:30:58.118Z,9.70
2023-05-15T22:36:01.071Z,9.80
2023-05-15T22:41:04.038Z,9.81
2023-05-15T22:46:06.743Z,9.89
2023-05-15T22:51:09.467Z,9.78
2023-05-15T22:56:12.260Z,9.53
2023-05-15T23:01:15.041Z,9.40
2023-05-15T23:06:29.965Z,9.22
2023-05-15T23:11:38.034Z,9.16
2023-05-15T23:16:41.039Z,9.09
2023-05-15T23:21:43.807Z,8.98
2023-05-15T23:26:47.137Z,8.76
2023-05-15T23:31:50.038Z,8.73
2023-05-15T23:36:52.852Z,8.73
2023-05-15T23:41:59.319Z,8.58
2023-05-15T23:47:02.094Z,8.48
2023-05-15T23:52:05.118Z,8.25
2023-05-15T23:57:07.826Z,8.21
